CheckWX is a tool to help pilots better visualize weather data.  It is not intended as a substitute for an official pre-flight weather briefing.

14:53:25 UTC

KCLT TAF
Charlotte / Douglas International Airport
Charlotte, North Carolina, USA
KCLT 231403Z 2314/2418 29005KT P6SM FEW250 FM232000 26005KT P6SM FEW250 FM240000 15003KT P6SM SCT250

Mar-23@
14:00 UTC

Mar-23 @ 14:00 UTC

Mar-23@
20:00 UTC

Mar-23 @ 20:00 UTC

KCLT 231403Z 2314/2418 29005KT P6SM FEW250
Wind
  • 290° at 5 KTS
Cloud Levels
  • Few at 25,000' AGL

Mar-23@
20:00 UTC

Mar-23 @ 20:00 UTC

Mar-24@
00:00 UTC

Mar-24 @ 00:00 UTC

FM232000 26005KT P6SM FEW250

From

From Standard forecast or significant change

Wind
  • 260° at 5 KTS
Cloud Levels
  • Few at 25,000' AGL

Mar-24@
00:00 UTC

Mar-24 @ 00:00 UTC

Mar-24@
18:00 UTC

Mar-24 @ 18:00 UTC

FM240000 15003KT P6SM SCT250

From

From Standard forecast or significant change

Wind
  • 150° at 3 KTS
Cloud Levels
  • Scattered at 25,000' AGL